createdAt,value
2017-08-17T14:25:35.433Z,25.42
2017-08-17T14:26:15.835Z,25.78
2017-08-17T14:26:56.372Z,25.49
2017-08-17T14:27:36.911Z,25.89
2017-08-17T14:28:17.399Z,26.56
2017-08-17T14:28:58.825Z,27.42
2017-08-17T14:29:39.324Z,28.09
2017-08-17T14:30:19.816Z,29.46
2017-08-17T14:31:00.299Z,29.16
2017-08-17T14:31:40.802Z,31.08
2017-08-17T14:32:21.299Z,32.04
2017-08-17T14:33:01.806Z,32.52
2017-08-17T14:33:42.302Z,33.37
2017-08-17T14:34:22.840Z,34.23
2017-08-17T14:35:03.308Z,34.05
2017-08-17T14:35:43.797Z,33.58
2017-08-17T14:36:24.320Z,33.2
2017-08-17T14:37:04.770Z,32.95
2017-08-17T14:39:17.543Z,33.58
2017-08-17T14:39:58.045Z,33.84
2017-08-17T14:40:38.537Z,34.53
2017-08-17T14:41:19.041Z,35.08
2017-08-17T14:41:59.549Z,35.68
2017-08-17T14:42:40.060Z,35.4
2017-08-17T14:43:20.550Z,35.6
2017-08-17T14:44:01.038Z,34.81
2017-08-17T14:46:13.954Z,37.26
2017-08-17T14:46:54.454Z,38.9
2017-08-17T14:47:34.967Z,39.17
2017-08-17T14:48:15.454Z,40.03
2017-08-17T14:50:03.130Z,39.94
2017-08-17T14:50:43.749Z,41.47
2017-08-17T14:51:24.379Z,41.66
2017-08-17T14:52:04.874Z,41.11
2017-08-17T14:52:45.360Z,40.27
2017-08-17T14:53:25.903Z,39.31
2017-08-17T14:54:06.391Z,39.95
2017-08-17T14:56:19.599Z,38.95
2017-08-17T14:57:00.193Z,37.49
2017-08-17T14:57:40.764Z,37.49
2017-08-17T14:58:21.422Z,37.22
2017-08-17T14:59:01.979Z,37.24
2017-08-17T14:59:42.581Z,36.29
2017-08-17T15:00:23.133Z,35.81
2017-08-17T15:01:03.676Z,35.43
2017-08-17T15:01:44.252Z,34.66
2017-08-17T15:02:24.767Z,35.12
2017-08-17T15:03:05.351Z,35.97
2017-08-17T15:03:45.846Z,36.65
2017-08-17T15:04:26.458Z,36.07
2017-08-17T15:05:06.933Z,36.55
2017-08-17T15:05:47.404Z,37.22
2017-08-17T15:06:28.114Z,38.36
2017-08-17T15:07:08.747Z,37.57
2017-08-17T15:07:49.445Z,38.15
2017-08-17T15:08:29.971Z,39.21
2017-08-17T15:09:10.537Z,39.13
2017-08-17T15:09:51.086Z,39.03
2017-08-17T15:10:31.578Z,39.4
2017-08-17T15:11:12.153Z,40.09
2017-08-17T15:11:52.633Z,39.88
2017-08-17T15:12:33.291Z,40.35
2017-08-17T15:13:15.005Z,40.74
2017-08-17T15:13:55.502Z,41.29
2017-08-17T15:14:36.372Z,41.51
2017-08-17T15:15:17.180Z,42.15
2017-08-17T15:15:57.688Z,42.19
2017-08-17T15:16:38.389Z,41.41
2017-08-17T15:17:19.086Z,41.51
2017-08-17T15:17:59.639Z,41.31
2017-08-17T15:18:40.165Z,41.51
2017-08-17T15:19:20.811Z,41.41
2017-08-17T15:20:01.616Z,41.49
2017-08-17T15:20:42.189Z,43.31
2017-08-17T15:21:22.606Z,44.05
2017-08-17T15:22:03.166Z,44.71
2017-08-17T15:22:43.588Z,44.07
2017-08-17T15:23:24.077Z,43.76
2017-08-17T15:24:04.513Z,44.49
2017-08-17T15:26:02.144Z,42.82
2017-08-17T15:26:42.621Z,41.49
2017-08-17T15:27:23.124Z,41.29
2017-08-17T15:28:03.700Z,40.74
2017-08-17T15:28:44.289Z,40.16
2017-08-17T15:29:24.892Z,39.31
2017-08-17T15:30:05.447Z,39.01
2017-08-17T15:30:49.463Z,38.54
2017-08-17T15:31:30.549Z,38.64
2017-08-17T15:32:11.079Z,37.2
2017-08-17T15:32:51.610Z,35.97
2017-08-17T15:33:32.106Z,35.89
2017-08-17T15:34:12.602Z,34.06
2017-08-17T15:34:53.096Z,33.28
2017-08-17T15:37:11.094Z,32.73
2017-08-17T15:37:51.613Z,32.04
2017-08-17T15:38:32.078Z,31.48
2017-08-17T15:39:12.540Z,30.8
2017-08-17T15:41:30.417Z,29.52
2017-08-17T15:42:10.932Z,29.06
2017-08-17T15:42:51.427Z,28.88
2017-08-17T15:43:31.965Z,29.54
2017-08-17T15:44:12.408Z,29.95
2017-08-17T15:44:52.853Z,30.95
2017-08-17T15:47:10.889Z,29.79
2017-08-17T15:47:51.400Z,29.5
2017-08-17T15:48:31.689Z,29.21
2017-08-17T15:49:12.196Z,29.5
2017-08-17T15:49:52.939Z,30.52
2017-08-17T15:50:33.586Z,31.33
2017-08-17T15:51:14.089Z,32.64
2017-08-17T15:51:54.511Z,32.73
2017-08-17T15:52:34.987Z,32.65
2017-08-17T15:53:15.576Z,32.47
2017-08-17T15:53:56.061Z,31.38
2017-08-17T15:54:36.689Z,31.7
2017-08-17T15:55:17.169Z,32.65
2017-08-17T15:55:57.656Z,33.06
2017-08-17T15:56:38.199Z,33.42
2017-08-17T15:57:18.723Z,33.15
2017-08-17T15:59:16.382Z,32.75
2017-08-17T15:59:56.833Z,32.57
2017-08-17T16:00:37.367Z,32.18
2017-08-17T16:01:18.539Z,33.15
2017-08-17T16:01:58.589Z,32.44
2017-08-17T16:02:39.162Z,33.41
2017-08-17T16:03:19.791Z,33.03
2017-08-17T16:04:00.503Z,32.64
2017-08-17T16:05:53.368Z,33.11
2017-08-17T16:06:33.736Z,32.72
2017-08-17T16:07:15.092Z,33.48
2017-08-17T16:07:55.555Z,33.28
2017-08-17T16:08:36.041Z,33.59
2017-08-17T16:09:17.649Z,32.73
2017-08-17T16:09:57.997Z,32.42
2017-08-17T16:10:38.572Z,33.97
2017-08-17T16:11:19.065Z,34.82
2017-08-17T16:11:59.676Z,34.82
2017-08-17T16:12:40.543Z,35.11
2017-08-17T16:13:21.172Z,34.94
2017-08-17T16:14:01.617Z,34.34
2017-08-17T16:14:42.270Z,34.17
2017-08-17T16:16:29.765Z,33.8
2017-08-17T16:17:10.252Z,33.58
2017-08-17T16:17:50.766Z,33.69
2017-08-17T16:18:31.262Z,33.79
2017-08-17T16:19:11.795Z,33.51
2017-08-17T16:19:52.238Z,32.54
2017-08-17T16:20:32.731Z,32.73
2017-08-17T16:21:13.227Z,33.22
2017-08-17T16:21:53.689Z,32.73
2017-08-17T16:22:34.102Z,32.95
2017-08-17T16:24:52.641Z,33.61
2017-08-17T16:25:33.116Z,33.79
2017-08-17T16:26:13.581Z,33.97
2017-08-17T16:26:54.078Z,33.75
2017-08-17T16:27:34.570Z,34.33
2017-08-17T16:28:15.051Z,35
2017-08-17T16:28:55.554Z,35.85
2017-08-17T16:29:36.054Z,36.46
2017-08-17T16:30:16.551Z,36.16
2017-08-17T16:30:57.050Z,35.1
2017-08-17T16:31:37.531Z,34.82
2017-08-17T16:32:18.007Z,34.05
2017-08-17T16:32:58.482Z,34.82
2017-08-17T16:34:46.463Z,35.18
2017-08-17T16:35:26.990Z,36.63
2017-08-17T16:36:07.411Z,36.54
2017-08-17T16:36:47.932Z,36.16
2017-08-17T16:39:05.813Z,36.46
2017-08-17T16:39:46.197Z,35.95
2017-08-17T16:40:26.858Z,37.09
2017-08-17T16:41:07.312Z,38.15
2017-08-17T16:41:47.866Z,38.64
2017-08-17T16:42:28.380Z,39.22
2017-08-17T16:43:08.841Z,39.09
2017-08-17T16:43:49.533Z,40.06
2017-08-17T16:46:08.133Z,40.74
2017-08-17T16:46:48.566Z,40.37
2017-08-17T16:47:29.021Z,40.08
2017-08-17T16:48:09.488Z,39.49
2017-08-17T16:48:49.951Z,39.98
2017-08-17T16:49:30.415Z,40.47
2017-08-17T16:50:10.883Z,40.25
2017-08-17T16:50:51.379Z,40.72
2017-08-17T16:51:31.868Z,41.41
2017-08-17T16:52:12.310Z,41.88
2017-08-17T16:53:59.815Z,42.44
2017-08-17T16:54:40.293Z,41.97
2017-08-17T16:55:20.773Z,42.07
2017-08-17T16:56:01.285Z,42.05
2017-08-17T16:56:41.773Z,42.15
2017-08-17T16:57:22.264Z,42.42
2017-08-17T16:58:02.811Z,42.32
2017-08-17T16:58:43.315Z,43.01
2017-08-17T16:59:23.815Z,42.71
2017-08-17T17:00:04.303Z,42.71
2017-08-17T17:00:44.793Z,43.1
2017-08-17T17:01:25.286Z,43.03
2017-08-17T17:02:05.789Z,42.61
2017-08-17T17:02:46.294Z,42.81
2017-08-17T17:03:26.767Z,42.61
2017-08-17T17:04:07.253Z,43.1
2017-08-17T17:04:47.746Z,43.3
2017-08-17T17:05:28.243Z,43.2
2017-08-17T17:06:08.723Z,43.28
2017-08-17T17:06:49.224Z,43.08
2017-08-17T17:07:29.714Z,43.48
2017-08-17T17:08:10.275Z,43.18
2017-08-17T17:08:50.699Z,43.18
2017-08-17T17:09:31.204Z,43.77
2017-08-17T17:10:11.678Z,43.57
2017-08-17T17:10:52.192Z,43.49
2017-08-17T17:11:32.667Z,43.89
2017-08-17T17:12:13.176Z,43.87
2017-08-17T17:12:53.654Z,43.18
2017-08-17T17:13:34.145Z,43.1
2017-08-17T17:14:14.644Z,43.1
2017-08-17T17:14:55.130Z,43.4
2017-08-17T17:15:35.625Z,43.59
2017-08-17T17:16:16.135Z,43.79
2017-08-17T17:16:56.625Z,42.71
2017-08-17T17:17:37.130Z,43.1
2017-08-17T17:18:17.631Z,43.3
2017-08-17T17:18:58.145Z,43.49
2017-08-17T17:19:38.616Z,43.48
2017-08-17T17:20:19.110Z,43.77
2017-08-17T17:20:59.603Z,44.26
2017-08-17T17:21:40.091Z,44.04
2017-08-17T17:22:20.588Z,44.43
2017-08-17T17:23:01.082Z,44.82
2017-08-17T17:23:41.577Z,44.43
2017-08-17T17:24:22.068Z,44.73
2017-08-17T17:25:02.552Z,44.82
2017-08-17T17:25:43.056Z,44.63
2017-08-17T17:26:23.559Z,44.53
2017-08-17T17:27:04.055Z,44.55
2017-08-17T17:27:44.546Z,44.16
2017-08-17T17:28:25.045Z,43.77
2017-08-17T17:29:05.545Z,43.96
2017-08-17T17:29:46.016Z,43.77
2017-08-17T17:30:26.516Z,43.95
2017-08-17T17:31:07.015Z,44.73
2017-08-17T17:31:47.512Z,45.31
2017-08-17T17:32:28.002Z,45.21
2017-08-17T17:33:08.493Z,44.63
2017-08-17T17:33:48.987Z,45.31
2017-08-17T17:34:29.482Z,45.31
2017-08-17T17:35:09.970Z,44.92
2017-08-17T17:35:50.468Z,44.82
2017-08-17T17:36:30.951Z,44.73
2017-08-17T17:37:11.444Z,44.92
2017-08-17T17:37:51.941Z,44.63
2017-08-17T17:38:32.429Z,44.63
2017-08-17T17:39:12.922Z,44.43
2017-08-17T17:39:53.417Z,45.41
2017-08-17T17:40:33.918Z,44.92
2017-08-17T17:41:14.414Z,45.31
2017-08-17T17:41:54.920Z,45.31
2017-08-17T17:42:35.417Z,45.29
2017-08-17T17:43:15.915Z,45.48
2017-08-17T17:43:56.411Z,45.19
2017-08-17T17:44:36.901Z,45.19
2017-08-17T17:45:17.386Z,45.9
2017-08-17T17:47:30.193Z,45.29
2017-08-17T17:48:10.682Z,46.46
2017-08-17T17:48:51.136Z,48
2017-08-17T17:49:31.656Z,47.63
2017-08-17T17:50:12.067Z,46.75
2017-08-17T17:50:52.509Z,46.46
2017-08-17T17:51:32.957Z,46.92
2017-08-17T17:52:13.453Z,46.83
2017-08-17T17:52:53.931Z,47.31
2017-08-17T17:53:34.414Z,47.22
2017-08-17T17:54:14.881Z,47.22
2017-08-17T17:54:55.425Z,47.12
2017-08-17T17:57:08.168Z,46.83
2017-08-17T17:57:49.353Z,46.92
2017-08-17T17:58:29.859Z,47.73
2017-08-17T17:59:11.352Z,47.51
2017-08-17T17:59:51.831Z,47.41
2017-08-17T18:00:32.335Z,47.41
2017-08-17T18:01:12.817Z,47.31
2017-08-17T18:01:53.346Z,47.51
2017-08-17T18:02:33.781Z,47.8
2017-08-17T18:03:14.277Z,47.22
2017-08-17T18:03:54.781Z,46.92
2017-08-17T18:04:35.280Z,47.22
2017-08-17T18:05:15.769Z,47
2017-08-17T18:05:56.263Z,47.19
2017-08-17T18:06:36.754Z,48.27
2017-08-17T18:07:17.258Z,50.9
2017-08-17T18:07:57.737Z,50.19
2017-08-17T18:08:38.225Z,49.99
2017-08-17T18:09:18.708Z,50.6
2017-08-17T18:09:59.201Z,51.29
2017-08-17T18:10:39.685Z,49.15
2017-08-17T18:11:20.173Z,49.34
2017-08-17T18:12:00.671Z,50.09
2017-08-17T18:12:41.175Z,50.48
2017-08-17T18:13:21.653Z,50.78
2017-08-17T18:14:02.153Z,49.99
2017-08-17T18:14:42.635Z,51.17
2017-08-17T18:15:23.137Z,50.75
2017-08-17T18:16:03.631Z,51.63
2017-08-17T18:16:44.104Z,51.04
2017-08-17T18:17:24.598Z,51.92
2017-08-17T18:18:05.094Z,51.24
2017-08-17T18:18:45.579Z,51.53
2017-08-17T18:19:26.076Z,51.63
2017-08-17T18:20:06.568Z,51.63
2017-08-17T18:20:47.067Z,52.12
2017-08-17T18:21:27.566Z,51.31
2017-08-17T18:22:08.068Z,51.9
2017-08-17T18:22:48.572Z,51.41
2017-08-17T18:23:29.065Z,50.95
2017-08-17T18:24:09.565Z,50.16
2017-08-17T18:24:50.039Z,49.88
2017-08-17T18:25:30.543Z,49.97
2017-08-17T18:26:11.028Z,50.46
2017-08-17T18:26:51.518Z,50.85
2017-08-17T18:27:32.023Z,50.65
2017-08-17T18:28:12.511Z,50.75
2017-08-17T18:28:53.001Z,51.34
2017-08-17T18:29:33.501Z,50.95
2017-08-17T18:30:13.999Z,51.04
2017-08-17T18:30:54.513Z,50.65
2017-08-17T18:31:35.010Z,50.46
2017-08-17T18:32:15.496Z,51.14
2017-08-17T18:32:55.993Z,52.97
2017-08-17T18:33:36.511Z,53.36
2017-08-17T18:34:17.002Z,54.62
2017-08-17T18:34:57.497Z,54.5
2017-08-17T18:35:37.989Z,54.6
2017-08-17T18:36:18.483Z,54.99
2017-08-17T18:36:58.981Z,54.21
2017-08-17T18:37:39.471Z,54.6
2017-08-17T18:38:19.969Z,54.5
2017-08-17T18:39:00.484Z,54.4
2017-08-17T18:39:40.986Z,54.6
2017-08-17T18:40:21.484Z,54.69
2017-08-17T18:41:01.974Z,54.4
2017-08-17T18:41:42.468Z,54.11
2017-08-17T18:42:22.958Z,54.3
2017-08-17T18:43:03.451Z,54.99
2017-08-17T18:43:43.928Z,54.6
2017-08-17T18:44:24.427Z,54.99
2017-08-17T18:45:04.920Z,55.01
2017-08-17T18:45:45.418Z,55.18
2017-08-17T18:46:25.904Z,54.33
2017-08-17T18:47:06.398Z,54.62
2017-08-17T18:47:46.885Z,54.72
2017-08-17T18:48:27.391Z,55.11
2017-08-17T18:49:07.876Z,55.01
2017-08-17T18:49:48.376Z,54.89
2017-08-17T18:50:28.856Z,55.18
2017-08-17T18:51:09.350Z,55.66
2017-08-17T18:51:49.845Z,55.47
2017-08-17T18:52:30.317Z,55.37
2017-08-17T18:53:10.806Z,55.79
2017-08-17T18:53:51.298Z,55.96
2017-08-17T18:54:31.787Z,56.71
2017-08-17T18:55:12.275Z,58.07
2017-08-17T18:57:04.826Z,58.36
2017-08-17T18:57:45.312Z,58.75
2017-08-17T18:58:25.797Z,59.59
2017-08-17T18:59:06.286Z,60.38
2017-08-17T18:59:46.800Z,61.15
2017-08-17T19:00:27.287Z,61.71
2017-08-17T19:01:07.777Z,62.35
2017-08-17T19:01:48.263Z,63.32
2017-08-17T19:02:28.763Z,64.65
2017-08-17T19:03:09.268Z,65.14
2017-08-17T19:03:50.391Z,65.24
2017-08-17T19:04:30.905Z,65.63
2017-08-17T19:05:11.400Z,65.33
2017-08-17T19:05:51.896Z,65.82
2017-08-17T19:06:32.381Z,65.82
2017-08-17T19:07:12.878Z,65.63
2017-08-17T19:07:53.366Z,65.37
2017-08-17T19:08:33.861Z,64.69
2017-08-17T19:09:14.354Z,64.88
2017-08-17T19:09:54.848Z,64.62
2017-08-17T19:10:35.358Z,64.11
2017-08-17T19:11:15.856Z,63.84
2017-08-17T19:11:56.351Z,64.59
2017-08-17T19:12:36.846Z,64.2
2017-08-17T19:13:17.342Z,64.49
2017-08-17T19:13:57.835Z,64.2
2017-08-17T19:14:38.326Z,63.91
2017-08-17T19:15:18.800Z,63.45
2017-08-17T19:15:59.287Z,63.84
2017-08-17T19:16:39.773Z,63.75
2017-08-17T19:17:20.902Z,63.55
2017-08-17T19:18:01.399Z,62.77
2017-08-17T19:18:41.892Z,62.77
2017-08-17T19:19:22.368Z,63.45
2017-08-17T19:20:02.836Z,63.45
2017-08-17T19:20:43.328Z,63.17
2017-08-17T19:21:23.824Z,63.45
2017-08-17T19:23:21.461Z,63.91
2017-08-17T19:24:01.944Z,65.05
2017-08-17T19:24:42.429Z,65.24
2017-08-17T19:25:22.918Z,65.63
2017-08-17T19:26:03.419Z,65.72
2017-08-17T19:27:55.999Z,66.11
2017-08-17T19:28:36.450Z,65.63
2017-08-17T19:29:16.900Z,65.63
2017-08-17T19:29:57.365Z,65.33
2017-08-17T19:30:37.826Z,66.21
2017-08-17T19:31:18.243Z,67.44
2017-08-17T19:31:58.678Z,67.34
2017-08-17T19:32:39.141Z,67.83
2017-08-17T19:33:19.594Z,67.89
2017-08-17T19:34:00.055Z,67.6
2017-08-17T19:34:40.537Z,67.99
2017-08-17T19:35:20.968Z,67.6
2017-08-17T19:36:01.449Z,68.28
2017-08-17T19:36:41.853Z,68.28
2017-08-17T19:37:22.351Z,69.02
2017-08-17T19:38:02.823Z,68.66
2017-08-17T19:38:43.299Z,69.44
2017-08-17T19:39:23.763Z,69.44
2017-08-17T19:40:04.206Z,69.54
2017-08-17T19:40:44.641Z,69.06
2017-08-17T19:41:25.128Z,69.73
2017-08-17T19:42:05.542Z,69.21
2017-08-17T19:42:46.015Z,69.89
2017-08-17T19:43:26.495Z,70.63
2017-08-17T19:44:06.949Z,70.57
2017-08-17T19:44:47.419Z,70.67
2017-08-17T19:45:27.857Z,70.18
2017-08-17T19:46:08.304Z,70.96
2017-08-17T19:46:48.803Z,70.47
2017-08-17T19:48:41.317Z,70.67
2017-08-17T19:49:21.803Z,70.96
2017-08-17T19:50:02.304Z,70.86
2017-08-17T19:50:42.788Z,70.96
2017-08-17T19:51:23.279Z,71.06
2017-08-17T19:52:03.763Z,70.86
2017-08-17T19:52:44.257Z,71.15
2017-08-17T19:53:24.756Z,71.44
2017-08-17T19:54:05.243Z,72.67
2017-08-17T19:54:45.738Z,73.69
2017-08-17T19:55:26.236Z,73.69
2017-08-17T19:56:06.739Z,74.18
2017-08-17T19:56:47.226Z,74.66
2017-08-17T19:57:27.721Z,74.57
2017-08-17T19:58:08.256Z,73.69
2017-08-17T19:58:48.712Z,73.35
2017-08-17T19:59:29.203Z,72.77
2017-08-17T20:00:09.705Z,72.18
2017-08-17T20:00:50.206Z,72.18
2017-08-17T20:01:30.687Z,72.18
2017-08-17T20:02:11.182Z,72.28
2017-08-17T20:02:51.673Z,72.02
2017-08-17T20:03:32.166Z,71.5
2017-08-17T20:04:12.655Z,72.09
2017-08-17T20:04:53.142Z,71.8
2017-08-17T20:05:33.646Z,71.5
2017-08-17T20:06:14.146Z,71.31
2017-08-17T20:06:54.632Z,72.09
2017-08-17T20:07:35.119Z,71.7
2017-08-17T20:08:15.613Z,72.53
2017-08-17T20:08:56.106Z,73.02
2017-08-17T20:09:36.613Z,72.73
2017-08-17T20:10:17.115Z,73.79
2017-08-17T20:10:57.607Z,73.41
2017-08-17T20:11:38.104Z,73.75
2017-08-17T20:12:18.606Z,73.75
2017-08-17T20:12:59.111Z,74.34
2017-08-17T20:13:39.613Z,74.34
2017-08-17T20:15:52.358Z,73.69
2017-08-17T20:16:32.874Z,73.21
2017-08-17T20:17:13.354Z,73.02
2017-08-17T20:17:53.860Z,73.02
2017-08-17T20:18:34.344Z,73.21
2017-08-17T20:19:14.851Z,73.21
2017-08-17T20:19:55.919Z,72.83
2017-08-17T20:20:36.400Z,72.83
2017-08-17T20:21:16.901Z,72.73
2017-08-17T20:21:57.383Z,73.11
2017-08-17T20:22:37.876Z,73.99
2017-08-17T20:23:18.361Z,74.38
2017-08-17T20:23:58.907Z,74.73
2017-08-17T20:24:39.355Z,75.21
2017-08-17T20:25:19.852Z,74.92
2017-08-17T20:26:00.346Z,75.4
2017-08-17T20:26:40.837Z,75.4
2017-08-17T20:27:21.368Z,74.86
2017-08-17T20:28:01.866Z,74.96
2017-08-17T20:28:42.922Z,75.44
2017-08-17T20:29:23.420Z,75.6
2017-08-17T20:30:03.950Z,76.18
2017-08-17T20:30:44.393Z,76.18
2017-08-17T20:31:24.893Z,75.95
2017-08-17T20:32:05.386Z,76.82
2017-08-17T20:32:45.872Z,77.11
2017-08-17T20:33:26.375Z,77.11
2017-08-17T20:34:06.861Z,77.4
2017-08-17T20:34:47.346Z,76.82
2017-08-17T20:35:27.849Z,77.59
2017-08-17T20:36:08.335Z,76.95
2017-08-17T20:36:48.832Z,76.56
2017-08-17T20:37:29.319Z,75.89
2017-08-17T20:38:09.815Z,76.56
2017-08-17T20:38:50.296Z,76.91
2017-08-17T20:39:30.794Z,77.11
2017-08-17T20:40:11.289Z,77.3
2017-08-17T20:40:51.784Z,77.2
2017-08-17T20:41:32.288Z,77.11
2017-08-17T20:42:12.779Z,76.46
2017-08-17T20:42:53.256Z,76.56
2017-08-17T20:43:33.755Z,75.89
2017-08-17T20:44:14.265Z,75.98
2017-08-17T20:44:54.758Z,76.56
2017-08-17T20:45:35.253Z,76.66
2017-08-17T20:46:15.757Z,75.98
2017-08-17T20:46:56.245Z,75.89
2017-08-17T20:47:36.730Z,76.95
2017-08-17T20:48:17.241Z,77.14
2017-08-17T20:48:57.725Z,77.14
2017-08-17T20:49:38.224Z,77.4
2017-08-17T20:50:18.706Z,78.36
2017-08-17T20:50:59.200Z,78.46
2017-08-17T20:51:39.693Z,78.17
2017-08-17T20:52:20.191Z,77.98
2017-08-17T20:53:00.673Z,78.75
2017-08-17T20:53:41.172Z,78.27
2017-08-17T20:54:21.674Z,78.46
2017-08-17T20:55:02.161Z,78.17
2017-08-17T20:55:42.654Z,78.66
2017-08-17T20:56:23.137Z,78.66
2017-08-17T20:57:03.636Z,77.98
2017-08-17T20:57:44.127Z,77.78
2017-08-17T20:58:24.621Z,77.73
2017-08-17T20:59:05.117Z,76.86
2017-08-17T20:59:45.591Z,76.46
2017-08-17T21:00:26.090Z,76.18
2017-08-17T21:01:06.585Z,76.28
2017-08-17T21:01:47.117Z,75.83
2017-08-17T21:02:27.599Z,75.63
2017-08-17T21:03:08.060Z,75.44
2017-08-17T21:03:48.554Z,75.05
2017-08-17T21:04:29.052Z,75.34
2017-08-17T21:05:09.543Z,75.34
2017-08-17T21:05:50.029Z,74.86
2017-08-17T21:06:30.534Z,74.86
2017-08-17T21:07:11.026Z,74.38
2017-08-17T21:07:51.522Z,74.57
2017-08-17T21:08:32.015Z,74.57
2017-08-17T21:09:12.502Z,74.28
2017-08-17T21:09:53.001Z,74.32
2017-08-17T21:10:33.487Z,74.47
2017-08-17T21:11:13.980Z,74.51
2017-08-17T21:11:54.448Z,74.51
2017-08-17T21:14:07.140Z,74.32
2017-08-17T21:14:47.631Z,74.41
2017-08-17T21:15:28.119Z,74.8
2017-08-17T21:16:08.611Z,74.22
2017-08-17T21:16:49.137Z,74.6
2017-08-17T21:17:29.598Z,74.41
2017-08-17T21:18:10.091Z,74.6
2017-08-17T21:18:50.586Z,74.6
2017-08-17T21:19:31.074Z,74.7
2017-08-17T21:20:11.576Z,74.7
2017-08-17T21:20:52.063Z,74.99
2017-08-17T21:21:32.552Z,75.19
2017-08-17T21:22:13.054Z,76.06
2017-08-17T21:22:53.537Z,75.83
2017-08-17T21:23:34.035Z,76.51
2017-08-17T21:24:14.531Z,75.73
2017-08-17T21:24:55.021Z,76.41
2017-08-17T21:25:35.513Z,76.7
2017-08-17T21:26:16.008Z,76.99
2017-08-17T21:26:56.519Z,76.89
2017-08-17T21:27:37.021Z,77.19
2017-08-17T21:28:17.511Z,77.19
2017-08-17T21:28:58.006Z,77.96
2017-08-17T21:29:38.495Z,78.21
2017-08-17T21:30:18.998Z,78.69
2017-08-17T21:30:59.504Z,78.59
2017-08-17T21:31:39.973Z,79.24
2017-08-17T21:32:20.490Z,78.75
2017-08-17T21:33:01.139Z,79.62
2017-08-17T21:33:41.630Z,80.16
2017-08-17T21:34:22.120Z,80.3
2017-08-17T21:35:02.606Z,80.07
2017-08-17T21:35:43.098Z,80.16
2017-08-17T21:36:24.555Z,80.4
2017-08-17T21:37:05.041Z,80.2
2017-08-17T21:37:45.557Z,80.4
2017-08-17T21:38:26.055Z,80.01
2017-08-17T21:39:06.572Z,80.74
2017-08-17T21:39:47.084Z,80.74
2017-08-17T21:40:27.569Z,80.84
2017-08-17T21:41:08.057Z,81.62
2017-08-17T21:41:48.559Z,81.52
2017-08-17T21:42:29.083Z,81.52
2017-08-17T21:43:09.551Z,81.81
2017-08-17T21:43:50.870Z,81.52
2017-08-17T21:44:31.361Z,81.9
2017-08-17T21:45:11.831Z,81.96
2017-08-17T21:45:52.319Z,82.1
2017-08-17T21:46:32.812Z,81.77
2017-08-17T21:47:13.317Z,81.71
2017-08-17T21:47:53.802Z,82.1
2017-08-17T21:48:34.289Z,82.35
2017-08-17T21:49:14.811Z,81.9
2017-08-17T21:49:55.239Z,81.87
2017-08-17T21:51:42.824Z,81.9
2017-08-17T21:52:23.261Z,81.67
2017-08-17T21:53:03.704Z,81.71
2017-08-17T21:53:44.148Z,81.71
2017-08-17T21:54:24.623Z,81.81
2017-08-17T21:56:12.822Z,82.1
2017-08-17T21:56:53.292Z,82.2
2017-08-17T21:57:33.782Z,82
2017-08-17T21:58:14.266Z,81.13
2017-08-17T21:58:54.757Z,81.81
2017-08-17T21:59:35.259Z,80.84
2017-08-17T22:00:15.747Z,82.15
2017-08-17T22:00:56.227Z,82.45
2017-08-17T22:01:36.690Z,82.64
2017-08-17T22:02:17.151Z,82.48
2017-08-17T22:02:57.607Z,82
2017-08-17T22:03:38.100Z,81.81
2017-08-17T22:04:18.545Z,81.9
2017-08-17T22:04:59.003Z,82.29
2017-08-17T22:05:40.131Z,81.71
2017-08-17T22:06:20.582Z,82
2017-08-17T22:08:38.461Z,82.45
2017-08-17T22:09:18.959Z,82.45
2017-08-17T22:10:00.028Z,82.06
2017-08-17T22:10:40.515Z,82.45
2017-08-17T22:11:21.018Z,82.45
2017-08-17T22:12:01.499Z,82.54
2017-08-17T22:12:41.990Z,82.35
2017-08-17T22:13:22.487Z,82.73
2017-08-17T22:14:03.836Z,82.45
2017-08-17T22:14:44.328Z,82.45
2017-08-17T22:15:24.846Z,83.12
2017-08-17T22:16:05.315Z,83.31
2017-08-17T22:16:45.800Z,83.61
2017-08-17T22:17:27.162Z,84.09
2017-08-17T22:18:07.655Z,83.22
2017-08-17T22:18:48.140Z,83.61
2017-08-17T22:19:28.618Z,83.31
2017-08-17T22:20:09.093Z,83.31
2017-08-17T22:20:49.579Z,83.03
2017-08-17T22:21:30.046Z,83.12
2017-08-17T22:23:42.860Z,83.12
2017-08-17T22:24:23.242Z,83.75
2017-08-17T22:25:03.703Z,83.56
2017-08-17T22:25:44.175Z,84.57
2017-08-17T22:26:24.607Z,84.38
2017-08-17T22:27:05.083Z,83.8
2017-08-17T22:29:17.790Z,83.22
2017-08-17T22:29:58.258Z,82.83
2017-08-17T22:30:38.766Z,83.8
2017-08-17T22:31:19.251Z,83.61
2017-08-17T22:32:00.582Z,83.89
2017-08-17T22:32:41.085Z,84.67
2017-08-17T22:33:21.591Z,84.28
2017-08-17T22:34:02.087Z,84.43
2017-08-17T22:34:42.584Z,85.01
2017-08-17T22:35:23.079Z,85.64
2017-08-17T22:36:03.582Z,86.07
2017-08-17T22:36:44.039Z,85.3
2017-08-17T22:37:24.533Z,85.45
2017-08-17T22:38:05.068Z,85.78
2017-08-17T22:38:45.520Z,85.74
2017-08-17T22:39:26.016Z,86.52
2017-08-17T22:40:06.507Z,86.32
2017-08-17T22:40:46.997Z,86.71
2017-08-17T22:41:27.488Z,86.32
2017-08-17T22:42:07.982Z,86.61
2017-08-17T22:42:48.474Z,86.52
2017-08-17T22:43:28.965Z,86.71
2017-08-17T22:44:09.459Z,87.09
2017-08-17T22:44:49.959Z,87
2017-08-17T22:45:30.456Z,87.38
2017-08-17T22:46:10.942Z,87.09
2017-08-17T22:46:51.450Z,87.38
2017-08-17T22:47:32.775Z,87.63
2017-08-17T22:48:13.282Z,87.67
2017-08-17T22:48:53.764Z,87.67
2017-08-17T22:49:34.254Z,87.77
2017-08-17T22:50:14.739Z,87.09
2017-08-17T22:50:55.242Z,87.09
2017-08-17T22:51:35.730Z,86.9
2017-08-17T22:52:16.843Z,86.42
2017-08-17T22:52:57.341Z,86.71
2017-08-17T22:53:37.827Z,86.52
2017-08-17T22:54:18.316Z,86.61
2017-08-17T22:54:58.813Z,86.22
2017-08-17T22:55:39.299Z,86.22
2017-08-17T22:56:20.580Z,86.61
2017-08-17T22:57:01.083Z,86.13
2017-08-17T22:57:41.564Z,87.19
2017-08-17T22:58:22.113Z,87.92
2017-08-17T22:59:03.267Z,88.31
2017-08-17T22:59:43.757Z,88.69
2017-08-17T23:00:24.248Z,88.59
2017-08-17T23:01:05.363Z,89.27
2017-08-17T23:01:45.849Z,89.56
2017-08-17T23:02:26.335Z,89.85
2017-08-17T23:03:06.839Z,89.85
2017-08-17T23:03:47.330Z,89.56
2017-08-17T23:04:28.690Z,89.65
2017-08-17T23:05:09.184Z,89.9
2017-08-17T23:05:49.706Z,89.81
2017-08-17T23:06:30.996Z,89.61
2017-08-17T23:07:12.002Z,89.9
2017-08-17T23:07:52.503Z,89.27
2017-08-17T23:08:33.589Z,89.13
2017-08-17T23:09:15.014Z,88.89
2017-08-17T23:09:55.481Z,89.07
2017-08-17T23:10:35.965Z,88.89
2017-08-17T23:11:17.103Z,88.4
2017-08-17T23:11:57.601Z,88.69
2017-08-17T23:12:39.087Z,88.69
2017-08-17T23:13:19.601Z,87.92
2017-08-17T23:14:00.085Z,88.4
2017-08-17T23:14:40.580Z,88.89
2017-08-17T23:15:23.597Z,88.89
2017-08-17T23:16:04.080Z,89.37
2017-08-17T23:16:44.573Z,90.14
2017-08-17T23:17:25.057Z,89.81
2017-08-17T23:18:07.103Z,89.51
2017-08-17T23:18:47.628Z,90.19
2017-08-17T23:19:28.108Z,91.06
2017-08-17T23:20:08.597Z,90.29
2017-08-17T23:20:49.074Z,90.29
2017-08-17T23:21:29.562Z,89.71
2017-08-17T23:22:10.049Z,90.09
2017-08-17T23:22:50.541Z,90.38
2017-08-17T23:23:31.031Z,90.58
2017-08-17T23:24:11.521Z,90.67
2017-08-17T23:24:52.697Z,90.96
2017-08-17T23:25:33.181Z,90.58
2017-08-17T23:26:14.353Z,91.44
2017-08-17T23:26:54.863Z,91.88
2017-08-17T23:27:35.366Z,92.17
2017-08-17T23:28:15.865Z,92.17
2017-08-17T23:28:56.367Z,92.08
2017-08-17T23:29:36.857Z,92.46
2017-08-17T23:30:17.346Z,92.85
2017-08-17T23:30:57.846Z,92.75
2017-08-17T23:31:39.202Z,92.46
2017-08-17T23:32:20.516Z,93.04
2017-08-17T23:33:01.009Z,92.65
2017-08-17T23:33:41.483Z,92.85
2017-08-17T23:34:21.996Z,91.6
2017-08-17T23:35:02.475Z,91.88
2017-08-17T23:35:42.969Z,92.08
2017-08-17T23:36:24.294Z,91.98
2017-08-17T23:37:04.794Z,92.94
2017-08-17T23:37:45.285Z,92.46
2017-08-17T23:38:25.777Z,92.46
2017-08-17T23:39:06.271Z,91.98
2017-08-17T23:39:46.770Z,92.27
2017-08-17T23:40:27.260Z,92.27
2017-08-17T23:41:07.754Z,91.3
2017-08-17T23:41:49.132Z,91.3
2017-08-17T23:42:29.604Z,91.4
2017-08-17T23:43:10.095Z,91.11
2017-08-17T23:43:50.572Z,91.6
2017-08-17T23:44:31.891Z,91.3
2017-08-17T23:45:12.379Z,91.5
2017-08-17T23:45:53.716Z,92.08
2017-08-17T23:46:34.195Z,92.65
2017-08-17T23:47:14.673Z,93.33
2017-08-17T23:47:55.164Z,92.51
2017-08-17T23:48:35.666Z,93.48
2017-08-17T23:49:17.516Z,93.28
2017-08-17T23:49:58.014Z,93.66
2017-08-17T23:50:39.113Z,93.76